Time;durP1;ratioP1;P1;durP2;ratioP2;P2;SDS_P1;SDS_P2;PMS_P1;PMS_P2;Temp;Humidity;BMP_temperature;BMP_pressure;BME280_temperature;BME280_humidity;BME280_pressure;Samples;Min_cycle;Max_cycle;Signal;HPM_P1;HPM_P2
2024/01/13 00:00:22;;;;;;;0.50;0.50;;;;;;;0.93;100.00;102779.28;5093533;28;20034;-58
2024/01/13 00:02:47;;;;;;;0.50;0.50;;;;;;;0.92;100.00;102762.25;5093314;28;20502;-59
2024/01/13 00:05:12;;;;;;;0.47;0.47;;;;;;;0.93;100.00;102764.03;5093427;28;20169;-59
2024/01/13 00:07:38;;;;;;;0.50;0.50;;;;;;;0.92;100.00;102759.69;5093731;28;20023;-58
2024/01/13 00:10:04;;;;;;;0.50;0.50;;;;;;;0.93;100.00;102764.03;5093799;28;20361;-58
2024/01/13 00:12:29;;;;;;;0.50;0.50;;;;;;;0.93;100.00;102761.50;5093468;28;20042;-59
2024/01/13 00:14:55;;;;;;;0.40;0.40;;;;;;;0.91;100.00;102757.03;5093564;28;20036;-58
2024/01/13 00:17:20;;;;;;;0.50;0.50;;;;;;;0.93;100.00;102750.44;5093623;28;20016;-59
2024/01/13 00:19:45;;;;;;;0.40;0.40;;;;;;;0.90;100.00;102743.41;5093694;28;20028;-58
2024/01/13 00:22:10;;;;;;;0.50;0.50;;;;;;;0.92;100.00;102744.47;5092907;28;20026;-58
2024/01/13 00:24:36;;;;;;;0.40;0.40;;;;;;;0.95;100.00;102754.03;5093724;28;20036;-59
2024/01/13 00:27:01;;;;;;;0.50;0.50;;;;;;;0.94;100.00;102745.53;5093499;28;20028;-58
2024/01/13 00:29:26;;;;;;;0.45;0.45;;;;;;;0.94;100.00;102743.00;5092684;28;20030;-58
2024/01/13 00:31:51;;;;;;;0.50;0.50;;;;;;;0.93;100.00;102736.13;5093532;28;20055;-58
2024/01/13 00:34:17;;;;;;;0.47;0.47;;;;;;;0.92;100.00;102744.47;5093199;28;20028;-59
2024/01/13 00:36:42;;;;;;;0.45;0.45;;;;;;;0.91;100.00;102737.59;5093222;28;20059;-59
2024/01/13 00:39:08;;;;;;;0.40;0.40;;;;;;;0.92;100.00;102738.50;5093481;28;20038;-59
2024/01/13 00:41:34;;;;;;;0.50;0.50;;;;;;;0.91;100.00;102727.44;5092988;28;20044;-59
2024/01/13 00:44:00;;;;;;;0.50;0.50;;;;;;;0.90;100.00;102723.09;5092994;28;20035;-58
2024/01/13 00:46:25;;;;;;;0.50;0.50;;;;;;;0.90;100.00;102719.69;5092551;28;20103;-59
2024/01/13 00:48:51;;;;;;;0.47;0.47;;;;;;;0.90;100.00;102724.75;5093364;28;20069;-58
2024/01/13 00:51:16;;;;;;;0.50;0.50;;;;;;;0.90;100.00;102725.63;5092603;28;20360;-58
2024/01/13 00:53:42;;;;;;;0.50;0.50;;;;;;;0.90;100.00;102717.13;5093193;28;20024;-58
2024/01/13 00:56:07;;;;;;;0.50;0.50;;;;;;;0.89;100.00;102718.78;5093344;28;20031;-58
2024/01/13 00:58:33;;;;;;;0.50;0.50;;;;;;;0.89;100.00;102718.78;5092686;28;20024;-59
2024/01/13 01:00:59;;;;;;;0.47;0.47;;;;;;;0.89;100.00;102708.63;5093163;28;20099;-58
2024/01/13 01:03:26;;;;;;;0.40;0.40;;;;;;;0.89;100.00;102712.81;5092895;28;20020;-59
2024/01/13 01:05:52;;;;;;;0.40;0.40;;;;;;;0.87;100.00;102704.16;5092731;28;20023;-59
2024/01/13 01:08:17;;;;;;;0.45;0.45;;;;;;;0.88;100.00;102705.94;5092459;28;20028;-58
2024/01/13 01:10:42;;;;;;;0.50;0.50;;;;;;;0.88;100.00;102704.31;5093023;28;20028;-58
2024/01/13 01:13:08;;;;;;;0.40;0.40;;;;;;;0.89;100.00;102703.56;5091853;28;20032;-59
2024/01/13 01:15:33;;;;;;;0.40;0.40;;;;;;;0.89;100.00;102697.56;5092694;28;20066;-58
2024/01/13 01:17:58;;;;;;;0.47;0.47;;;;;;;0.87;100.00;102691.47;5092553;28;20028;-58
2024/01/13 01:20:24;;;;;;;0.40;0.40;;;;;;;0.86;100.00;102682.94;5092795;28;20374;-58
2024/01/13 01:22:49;;;;;;;0.50;0.50;;;;;;;0.88;100.00;102686.53;5092504;28;20391;-58
2024/01/13 01:25:15;;;;;;;0.50;0.50;;;;;;;0.88;100.00;102681.44;5092293;28;20032;-58
2024/01/13 01:27:40;;;;;;;0.50;0.50;;;;;;;0.91;100.00;102685.94;5093068;28;20020;-59
2024/01/13 01:30:06;;;;;;;0.40;0.40;;;;;;;0.90;100.00;102679.94;5092735;28;20046;-58
2024/01/13 01:32:31;;;;;;;0.50;0.50;;;;;;;0.91;100.00;102675.78;5092014;28;20028;-58
2024/01/13 01:34:56;;;;;;;0.40;0.40;;;;;;;0.91;100.00;102676.66;5092721;28;20027;-58
2024/01/13 01:37:23;;;;;;;0.50;0.50;;;;;;;0.93;100.00;102674.28;5092526;28;20523;-58
2024/01/13 01:39:48;;;;;;;0.40;0.40;;;;;;;0.94;100.00;102666.84;5092241;28;20020;-58
2024/01/13 01:42:13;;;;;;;0.40;0.40;;;;;;;0.94;100.00;102677.00;5092043;28;20099;-58
2024/01/13 01:44:39;;;;;;;0.50;0.50;;;;;;;0.93;100.00;102670.09;5092968;28;20372;-58
2024/01/13 01:47:08;;;;;;;0.40;0.40;;;;;;;0.93;100.00;102675.19;5092205;28;20103;-58
2024/01/13 01:49:33;;;;;;;0.43;0.43;;;;;;;0.93;100.00;102667.56;5091885;28;20483;-58
2024/01/13 01:51:59;;;;;;;0.40;0.40;;;;;;;0.94;100.00;102666.84;5092871;28;20058;-58
2024/01/13 01:54:24;;;;;;;0.50;0.50;;;;;;;0.95;100.00;102662.63;5092005;28;20032;-58
2024/01/13 01:56:50;;;;;;;0.40;0.40;;;;;;;0.95;100.00;102666.06;5092495;28;20020;-58
2024/01/13 01:59:15;;;;;;;0.50;0.50;;;;;;;0.96;100.00;102664.44;5092343;28;20024;-58
2024/01/13 02:01:41;;;;;;;0.40;0.40;;;;;;;0.95;100.00;102660.97;5092233;28;20028;-58
2024/01/13 02:04:06;;;;;;;0.40;0.40;;;;;;;0.97;100.00;102662.03;5092269;28;20032;-58
2024/01/13 02:06:31;;;;;;;0.40;0.40;;;;;;;0.98;100.00;102660.38;5092234;28;20111;-58
2024/01/13 02:08:57;;;;;;;0.40;0.40;;;;;;;0.95;100.00;102658.44;5091836;28;20035;-58
2024/01/13 02:11:23;;;;;;;0.40;0.40;;;;;;;0.95;100.00;102648.28;5091969;28;20020;-58
2024/01/13 02:13:49;;;;;;;0.30;0.30;;;;;;;0.97;100.00;102651.00;5092509;28;20039;-58
2024/01/13 02:16:15;;;;;;;0.50;0.50;;;;;;;0.97;100.00;102648.47;5091880;28;20533;-58
2024/01/13 02:18:41;;;;;;;0.50;0.50;;;;;;;0.96;100.00;102645.00;5091967;28;20035;-58
2024/01/13 02:21:06;;;;;;;0.47;0.47;;;;;;;0.97;100.00;102651.88;5092320;28;20032;-58
2024/01/13 02:23:32;;;;;;;0.50;0.50;;;;;;;0.96;100.00;102645.00;5091364;28;20067;-58
2024/01/13 02:25:58;;;;;;;0.50;0.50;;;;;;;0.95;100.00;102633.06;5095779;28;20024;-58
2024/01/13 02:28:23;;;;;;;0.40;0.40;;;;;;;0.97;100.00;102631.56;5095236;28;20376;-58
2024/01/13 02:30:48;;;;;;;0.40;0.40;;;;;;;0.96;100.00;102629.78;5096117;28;20059;-58
2024/01/13 02:33:14;;;;;;;0.40;0.40;;;;;;;0.94;100.00;102626.22;5095351;28;20028;-58
2024/01/13 02:35:39;;;;;;;0.50;0.50;;;;;;;0.98;100.00;102617.22;5095388;28;20093;-58
2024/01/13 02:38:04;;;;;;;0.35;0.35;;;;;;;0.96;100.00;102619.63;5095807;28;20062;-58
2024/01/13 02:40:29;;;;;;;0.50;0.50;;;;;;;0.96;100.00;102614.53;5095207;28;20086;-58
2024/01/13 02:42:55;;;;;;;0.40;0.40;;;;;;;0.96;100.00;102613.66;5095344;28;20032;-58
2024/01/13 02:45:20;;;;;;;0.40;0.40;;;;;;;0.96;100.00;102600.97;5095361;28;20024;-58
2024/01/13 02:47:55;;;;;;;0.50;0.50;;;;;;;0.94;100.00;102603.34;5095663;28;20028;-58
2024/01/13 02:50:20;;;;;;;0.45;0.45;;;;;;;0.95;100.00;102601.69;5094924;28;20020;-58
2024/01/13 02:52:47;;;;;;;0.43;0.43;;;;;;;0.93;100.00;102588.88;5095268;28;20024;-58
2024/01/13 02:55:12;;;;;;;0.40;0.40;;;;;;;0.93;100.00;102585.41;5095452;28;20095;-58
2024/01/13 02:57:37;;;;;;;0.40;0.40;;;;;;;0.96;100.00;102584.06;5095094;28;20218;-58
2024/01/13 03:00:04;;;;;;;0.40;0.40;;;;;;;0.94;100.00;102582.13;5095293;28;20378;-58
2024/01/13 03:02:29;;;;;;;0.50;0.50;;;;;;;0.94;100.00;102580.50;5094986;28;20114;-57
2024/01/13 03:04:55;;;;;;;0.50;0.50;;;;;;;0.93;100.00;102573.63;5094799;28;20103;-58
2024/01/13 03:07:20;;;;;;;0.50;0.50;;;;;;;0.93;100.00;102572.72;5094705;28;20028;-58
2024/01/13 03:09:45;;;;;;;0.50;0.50;;;;;;;0.94;100.00;102569.44;5095384;28;20059;-58
2024/01/13 03:12:10;;;;;;;0.50;0.50;;;;;;;0.92;100.00;102566.75;5094477;28;20085;-58
2024/01/13 03:14:36;;;;;;;0.50;0.50;;;;;;;0.92;100.00;102566.75;5095057;28;20023;-58
2024/01/13 03:17:01;;;;;;;0.40;0.40;;;;;;;0.92;100.00;102561.69;5095406;28;20067;-58
2024/01/13 03:19:28;;;;;;;0.40;0.40;;;;;;;0.91;100.00;102549.72;5094156;28;20028;-58
2024/01/13 03:21:53;;;;;;;0.50;0.50;;;;;;;0.93;100.00;102545.72;5094876;28;20024;-58
2024/01/13 03:24:19;;;;;;;0.40;0.40;;;;;;;0.94;100.00;102544.97;5094851;28;20020;-58
2024/01/13 03:26:44;;;;;;;0.45;0.45;;;;;;;0.94;100.00;102532.28;5094437;28;20024;-58
2024/01/13 03:29:09;;;;;;;0.47;0.47;;;;;;;0.96;100.00;102535.84;5094501;28;20418;-58
2024/01/13 03:31:34;;;;;;;0.40;0.40;;;;;;;0.97;100.00;102532.56;5094333;28;20023;-58
2024/01/13 03:34:00;;;;;;;0.50;0.50;;;;;;;1.00;100.00;102531.06;5094828;28;20025;-58
2024/01/13 03:36:25;;;;;;;0.40;0.40;;;;;;;1.01;100.00;102522.69;5093066;28;20481;-58
2024/01/13 03:38:50;;;;;;;0.40;0.40;;;;;;;1.03;100.00;102522.06;5094412;28;20032;-58
2024/01/13 03:41:19;;;;;;;0.50;0.50;;;;;;;1.04;100.00;102525.53;5093879;28;20047;-58
2024/01/13 03:43:45;;;;;;;0.40;0.40;;;;;;;1.06;100.00;102524.00;5094554;28;20028;-58
2024/01/13 03:46:10;;;;;;;0.50;0.50;;;;;;;1.06;100.00;102508.78;5093721;28;20016;-58
2024/01/13 03:48:36;;;;;;;0.50;0.50;;;;;;;1.07;100.00;102511.50;5094270;28;20032;-58
2024/01/13 03:51:01;;;;;;;0.50;0.50;;;;;;;1.08;100.00;102512.38;5094217;28;20028;-58
2024/01/13 03:53:28;;;;;;;0.40;0.40;;;;;;;1.09;100.00;102511.63;5093540;28;20027;-58
2024/01/13 03:55:53;;;;;;;0.50;0.50;;;;;;;1.10;100.00;102500.72;5094300;28;20032;-58
2024/01/13 03:58:19;;;;;;;0.40;0.40;;;;;;;1.12;100.00;102499.22;5094112;28;20030;-58
2024/01/13 04:00:44;;;;;;;0.50;0.50;;;;;;;1.14;100.00;102500.25;5093721;28;20028;-58
2024/01/13 04:03:09;;;;;;;0.40;0.40;;;;;;;1.13;100.00;102501.00;5093308;28;20468;-58
2024/01/13 04:05:34;;;;;;;0.50;0.50;;;;;;;1.15;100.00;102494.44;5094127;28;20039;-58
2024/01/13 04:08:00;;;;;;;0.50;0.50;;;;;;;1.18;100.00;102493.84;5093545;28;20031;-58
2024/01/13 04:10:25;;;;;;;0.50;0.50;;;;;;;1.18;100.00;102488.75;5093500;28;20016;-58
2024/01/13 04:12:51;;;;;;;0.43;0.43;;;;;;;1.20;100.00;102492.31;5094195;28;20035;-58
2024/01/13 04:15:16;;;;;;;0.40;0.40;;;;;;;1.22;100.00;102496.78;5093278;28;20020;-58
2024/01/13 04:17:41;;;;;;;0.40;0.40;;;;;;;1.22;100.00;102485.75;5093737;28;20028;-57
2024/01/13 04:20:07;;;;;;;0.50;0.50;;;;;;;1.23;100.00;102490.97;5093725;28;20046;-58
2024/01/13 04:22:32;;;;;;;0.40;0.40;;;;;;;1.25;100.00;102484.41;5093131;28;20387;-58
2024/01/13 04:24:58;;;;;;;0.50;0.50;;;;;;;1.25;100.00;102470.78;5093336;28;20028;-58
2024/01/13 04:27:23;;;;;;;0.40;0.40;;;;;;;1.26;100.00;102472.56;5093685;28;20024;-58
2024/01/13 04:29:48;;;;;;;0.40;0.40;;;;;;;1.25;100.00;102476.78;5093340;28;20043;-58
2024/01/13 04:32:14;;;;;;;0.50;0.50;;;;;;;1.25;100.00;102466.63;5093262;28;20097;-58
2024/01/13 04:34:39;;;;;;;0.50;0.50;;;;;;;1.26;100.00;102462.41;5093401;28;20367;-58
2024/01/13 04:37:04;;;;;;;0.43;0.43;;;;;;;1.24;100.00;102474.97;5093346;28;20016;-58
2024/01/13 04:39:30;;;;;;;0.40;0.40;;;;;;;1.25;100.00;102471.69;5093301;28;20026;-58
2024/01/13 04:41:55;;;;;;;0.40;0.40;;;;;;;1.24;100.00;102469.91;5092802;28;20055;-58
2024/01/13 04:44:20;;;;;;;0.45;0.45;;;;;;;1.27;100.00;102462.56;5093106;28;20069;-58
2024/01/13 04:46:46;;;;;;;0.40;0.40;;;;;;;1.25;100.00;102471.69;5093102;28;20081;-58
2024/01/13 04:49:11;;;;;;;0.43;0.43;;;;;;;1.25;100.00;102464.06;5092401;28;20353;-58
2024/01/13 04:51:37;;;;;;;0.43;0.43;;;;;;;1.25;100.00;102466.63;5093268;28;20016;-58
2024/01/13 04:54:03;;;;;;;0.40;0.40;;;;;;;1.24;100.00;102459.75;5093464;28;20353;-58
2024/01/13 04:56:28;;;;;;;0.40;0.40;;;;;;;1.24;100.00;102464.81;5092587;28;20420;-58
2024/01/13 04:58:54;;;;;;;0.45;0.45;;;;;;;1.24;100.00;102464.81;5092889;28;20535;-58
2024/01/13 05:01:19;;;;;;;0.50;0.50;;;;;;;1.24;100.00;102472.44;5092729;28;20111;-58
2024/01/13 05:03:44;;;;;;;0.40;0.40;;;;;;;1.25;100.00;102470.78;5092562;28;20106;-58
2024/01/13 05:06:10;;;;;;;0.50;0.50;;;;;;;1.25;100.00;102461.53;5092568;28;20028;-58
2024/01/13 05:08:35;;;;;;;0.40;0.40;;;;;;;1.26;100.00;102459.88;5093059;28;20055;-58
2024/01/13 05:11:00;;;;;;;0.47;0.47;;;;;;;1.24;100.00;102454.66;5092434;28;20055;-59
2024/01/13 05:13:25;;;;;;;0.50;0.50;;;;;;;1.23;100.00;102447.78;5092434;28;20027;-58
2024/01/13 05:15:51;;;;;;;0.50;0.50;;;;;;;1.24;100.00;102451.19;5093285;28;20028;-58
2024/01/13 05:18:16;;;;;;;0.50;0.50;;;;;;;1.23;100.00;102454.53;5092095;28;20024;-58
2024/01/13 05:20:41;;;;;;;0.50;0.50;;;;;;;1.24;100.00;102463.91;5092536;28;20107;-58
2024/01/13 05:23:07;;;;;;;0.40;0.40;;;;;;;1.23;100.00;102463.03;5092700;28;20020;-58
2024/01/13 05:25:33;;;;;;;0.40;0.40;;;;;;;1.23;100.00;102452.88;5092288;28;20476;-58
2024/01/13 05:27:58;;;;;;;0.45;0.45;;;;;;;1.23;100.00;102459.59;5092616;28;20044;-58
2024/01/13 05:30:26;;;;;;;0.50;0.50;;;;;;;1.23;100.00;102452.88;5092427;28;20038;-58
2024/01/13 05:32:51;;;;;;;0.55;0.55;;;;;;;1.22;100.00;102451.06;5092190;28;20391;-58
2024/01/13 05:35:16;;;;;;;0.45;0.45;;;;;;;1.22;100.00;102450.19;5092499;28;20464;-58
2024/01/13 05:37:42;;;;;;;0.50;0.50;;;;;;;1.21;100.00;102449.28;5092840;28;20028;-58
2024/01/13 05:40:08;;;;;;;0.50;0.50;;;;;;;1.21;100.00;102444.19;5092222;28;20471;-58
2024/01/13 05:42:33;;;;;;;0.50;0.50;;;;;;;1.21;100.00;102436.56;5092102;28;20038;-58
2024/01/13 05:44:58;;;;;;;0.40;0.40;;;;;;;1.21;100.00;102443.31;5092898;28;20024;-58
2024/01/13 05:47:24;;;;;;;0.50;0.50;;;;;;;1.21;100.00;102435.69;5091691;28;20020;-58
2024/01/13 05:49:49;;;;;;;0.50;0.50;;;;;;;1.19;100.00;102430.47;5092688;28;20032;-58
2024/01/13 05:52:14;;;;;;;0.47;0.47;;;;;;;1.20;100.00;102431.34;5091982;28;20115;-58
2024/01/13 05:54:40;;;;;;;0.50;0.50;;;;;;;1.20;100.00;102439.88;5092430;28;20069;-58
2024/01/13 05:57:05;;;;;;;0.50;0.50;;;;;;;1.18;100.00;102449.00;5092718;28;20035;-57
2024/01/13 05:59:30;;;;;;;0.35;0.35;;;;;;;1.19;100.00;102454.97;5092877;28;20028;-57
2024/01/13 06:01:56;;;;;;;0.40;0.40;;;;;;;1.19;100.00;102450.78;5096431;28;20102;-58
2024/01/13 06:04:21;;;;;;;0.43;0.43;;;;;;;1.19;100.00;102450.78;5096153;28;20490;-58
2024/01/13 06:06:47;;;;;;;0.40;0.40;;;;;;;1.20;100.00;102457.66;5095971;28;20048;-58
2024/01/13 06:09:12;;;;;;;0.50;0.50;;;;;;;1.19;100.00;102448.25;5095792;28;20020;-58
2024/01/13 06:11:41;;;;;;;0.40;0.40;;;;;;;1.18;100.00;102443.91;5096380;28;20030;-58
2024/01/13 06:14:06;;;;;;;0.55;0.55;;;;;;;1.17;100.00;102437.03;5096021;28;20035;-58
2024/01/13 06:16:31;;;;;;;0.30;0.30;;;;;;;1.18;100.00;102428.69;5095672;28;20024;-58
2024/01/13 06:18:57;;;;;;;0.50;0.50;;;;;;;1.17;100.00;102426.00;5096126;28;20555;-58
2024/01/13 06:21:22;;;;;;;0.43;0.43;;;;;;;1.14;100.00;102422.41;5095677;28;20031;-58
2024/01/13 06:23:47;;;;;;;0.50;0.50;;;;;;;1.15;100.00;102408.09;5096126;28;20024;-58
2024/01/13 06:26:13;;;;;;;0.60;0.60;;;;;;;1.14;100.00;102401.22;5095790;28;20020;-58
2024/01/13 06:28:38;;;;;;;0.50;0.50;;;;;;;1.13;100.00;102404.50;5095688;28;20028;-58
2024/01/13 06:31:03;;;;;;;0.40;0.40;;;;;;;1.13;100.00;102389.28;5095859;28;20028;-58
2024/01/13 06:33:29;;;;;;;0.50;0.50;;;;;;;1.13;100.00;102379.13;5095632;28;20122;-58
2024/01/13 06:35:55;;;;;;;0.50;0.50;;;;;;;1.13;100.00;102385.06;5095414;28;20026;-58
2024/01/13 06:38:20;;;;;;;0.50;0.50;;;;;;;1.14;100.00;102393.59;5095556;28;20031;-58
2024/01/13 06:40:45;;;;;;;0.50;0.50;;;;;;;1.13;100.00;102399.44;5095594;28;20040;-58
2024/01/13 06:43:11;;;;;;;0.50;0.50;;;;;;;1.13;100.00;102386.72;5094866;28;20056;-58
2024/01/13 06:45:36;;;;;;;0.45;0.45;;;;;;;1.13;100.00;102385.06;5095564;28;20034;-58
2024/01/13 06:48:02;;;;;;;0.60;0.60;;;;;;;1.12;100.00;102378.22;5095642;28;20055;-58
2024/01/13 06:50:27;;;;;;;0.50;0.50;;;;;;;1.13;100.00;102391.81;5094874;28;20464;-58
2024/01/13 06:52:53;;;;;;;0.40;0.40;;;;;;;1.14;100.00;102386.00;5095583;28;20024;-58
2024/01/13 06:55:22;;;;;;;0.50;0.50;;;;;;;1.13;100.00;102374.03;5095440;28;20533;-58
2024/01/13 06:57:47;;;;;;;0.50;0.50;;;;;;;1.12;100.00;102357.00;5094610;28;20043;-58
2024/01/13 07:00:13;;;;;;;0.43;0.43;;;;;;;1.14;100.00;102347.91;5095241;28;20024;-58
2024/01/13 07:02:39;;;;;;;0.50;0.50;;;;;;;1.14;100.00;102363.13;5094721;28;20020;-58
2024/01/13 07:05:04;;;;;;;0.50;0.50;;;;;;;1.14;100.00;102352.97;5095253;28;20058;-58
2024/01/13 07:07:31;;;;;;;0.50;0.50;;;;;;;1.15;100.00;102347.16;5095238;28;20478;-58
2024/01/13 07:09:56;;;;;;;0.47;0.47;;;;;;;1.14;100.00;102332.66;5094871;28;20069;-58
2024/01/13 07:12:21;;;;;;;0.50;0.50;;;;;;;1.14;100.00;102322.50;5094805;28;20107;-58
2024/01/13 07:14:47;;;;;;;0.60;0.60;;;;;;;1.14;100.00;102328.47;5095047;28;20504;-58
2024/01/13 07:17:12;;;;;;;0.50;0.50;;;;;;;1.15;100.00;102326.84;5094202;28;20059;-58
2024/01/13 07:19:39;;;;;;;0.45;0.45;;;;;;;1.15;100.00;102326.84;5095088;28;20028;-58
2024/01/13 07:22:05;;;;;;;0.40;0.40;;;;;;;1.15;100.00;102319.22;5095052;28;20464;-58
2024/01/13 07:24:31;;;;;;;0.40;0.40;;;;;;;1.14;100.00;102325.91;5094131;28;20024;-58
2024/01/13 07:26:56;;;;;;;0.50;0.50;;;;;;;1.15;100.00;102316.69;5094733;28;20504;-58
2024/01/13 07:29:22;;;;;;;0.50;0.50;;;;;;;1.14;100.00;102309.81;5094516;28;20055;-58
2024/01/13 07:31:47;;;;;;;0.50;0.50;;;;;;;1.13;100.00;102302.94;5094094;28;20424;-58
2024/01/13 07:34:12;;;;;;;0.50;0.50;;;;;;;1.14;100.00;102307.25;5094333;28;20027;-58
2024/01/13 07:36:37;;;;;;;0.40;0.40;;;;;;;1.14;100.00;102309.81;5094225;28;20024;-58
2024/01/13 07:39:03;;;;;;;0.50;0.50;;;;;;;1.17;100.00;102317.69;5094081;28;20031;-58
2024/01/13 07:41:28;;;;;;;0.40;0.40;;;;;;;1.17;100.00;102312.59;5093949;28;20048;-58
2024/01/13 07:43:54;;;;;;;0.40;0.40;;;;;;;1.17;100.00;102315.16;5094448;28;20039;-58
2024/01/13 07:46:20;;;;;;;0.45;0.45;;;;;;;1.17;100.00;102312.59;5093567;28;20028;-58
2024/01/13 07:48:45;;;;;;;0.40;0.40;;;;;;;1.17;100.00;102299.03;5094456;28;20070;-57
2024/01/13 07:51:10;;;;;;;0.43;0.43;;;;;;;1.17;100.00;102297.38;5094090;28;20047;-58
2024/01/13 07:53:36;;;;;;;0.40;0.40;;;;;;;1.18;100.00;102288.13;5093880;28;20020;-57
2024/01/13 07:56:01;;;;;;;0.50;0.50;;;;;;;1.15;100.00;102291.28;5094104;28;20036;-57
2024/01/13 07:58:26;;;;;;;0.50;0.50;;;;;;;1.17;100.00;102284.69;5094038;28;20016;-57
2024/01/13 08:00:52;;;;;;;0.40;0.40;;;;;;;1.18;100.00;102295.75;5093329;28;20494;-57
2024/01/13 08:03:18;;;;;;;0.40;0.40;;;;;;;1.18;100.00;102288.13;5094071;28;20032;-59
2024/01/13 08:05:43;;;;;;;0.50;0.50;;;;;;;1.18;100.00;102278.84;5094173;28;20097;-57
2024/01/13 08:08:09;;;;;;;0.50;0.50;;;;;;;1.18;100.00;102265.28;5093278;28;20372;-57
2024/01/13 08:10:37;;;;;;;0.50;0.50;;;;;;;1.15;100.00;102255.72;5094058;28;20491;-57
2024/01/13 08:13:03;;;;;;;0.50;0.50;;;;;;;1.17;100.00;102274.50;5093636;28;20024;-57
2024/01/13 08:15:29;;;;;;;0.60;0.60;;;;;;;1.19;100.00;102269.56;5093604;28;20425;-57
2024/01/13 08:17:54;;;;;;;0.47;0.47;;;;;;;1.19;100.00;102273.03;5094107;28;20356;-57
2024/01/13 08:20:20;;;;;;;0.40;0.40;;;;;;;1.20;100.00;102267.19;5092627;28;20027;-57
2024/01/13 08:22:46;;;;;;;0.50;0.50;;;;;;;1.20;100.00;102244.34;5092491;28;20024;-57
2024/01/13 08:25:12;;;;;;;0.40;0.40;;;;;;;1.21;100.00;102240.13;5093655;28;20113;-58
2024/01/13 08:27:37;;;;;;;0.50;0.50;;;;;;;1.22;100.00;102252.09;5093145;28;20026;-58
2024/01/13 08:30:04;;;;;;;0.45;0.45;;;;;;;1.24;100.00;102261.63;5093505;28;20023;-58
2024/01/13 08:32:29;;;;;;;0.43;0.43;;;;;;;1.23;100.00;102247.13;5093566;28;20562;-58
2024/01/13 08:34:54;;;;;;;0.50;0.50;;;;;;;1.24;100.00;102251.47;5093267;28;20501;-57
2024/01/13 08:37:20;;;;;;;0.50;0.50;;;;;;;1.27;100.00;102254.28;5093053;28;20107;-57
2024/01/13 08:39:45;;;;;;;0.40;0.40;;;;;;;1.28;100.00;102252.66;5093431;28;20032;-58
2024/01/13 08:42:10;;;;;;;0.50;0.50;;;;;;;1.30;100.00;102262.19;5092849;28;20024;-58
2024/01/13 08:44:35;;;;;;;0.43;0.43;;;;;;;1.33;100.00;102274.28;5092954;28;20127;-58
2024/01/13 08:47:01;;;;;;;0.50;0.50;;;;;;;1.34;100.00;102272.63;5093684;28;20039;-58
2024/01/13 08:49:27;;;;;;;0.50;0.50;;;;;;;1.36;100.00;102268.56;5092825;28;20027;-58
2024/01/13 08:51:52;;;;;;;0.40;0.40;;;;;;;1.35;100.00;102264.25;5093260;28;20091;-58
2024/01/13 08:54:18;;;;;;;0.50;0.50;;;;;;;1.37;100.00;102258.53;5093192;28;20035;-58
2024/01/13 08:56:44;;;;;;;0.50;0.50;;;;;;;1.38;100.00;102259.44;5092790;28;20093;-57
2024/01/13 08:59:09;;;;;;;0.50;0.50;;;;;;;1.40;100.00;102263.00;5092937;28;20380;-58
2024/01/13 09:01:34;;;;;;;0.50;0.50;;;;;;;1.41;100.00;102259.72;5093239;28;20028;-57
2024/01/13 09:03:59;;;;;;;0.40;0.40;;;;;;;1.40;100.00;102266.44;5092507;28;20077;-57
2024/01/13 09:06:26;;;;;;;0.40;0.40;;;;;;;1.42;100.00;102264.03;5093073;28;20035;-58
2024/01/13 09:08:51;;;;;;;0.40;0.40;;;;;;;1.45;100.00;102257.56;5093070;28;20533;-58
2024/01/13 09:11:17;;;;;;;0.50;0.50;;;;;;;1.44;100.00;102258.31;5092244;28;20024;-58
2024/01/13 09:13:42;;;;;;;0.43;0.43;;;;;;;1.45;100.00;102261.78;5092893;28;20032;-57
2024/01/13 09:16:07;;;;;;;0.40;0.40;;;;;;;1.45;100.00;102269.41;5093192;28;20016;-57
2024/01/13 09:18:32;;;;;;;0.50;0.50;;;;;;;1.45;100.00;102266.84;5091830;28;20024;-57
2024/01/13 09:20:58;;;;;;;0.50;0.50;;;;;;;1.45;100.00;102251.59;5093013;28;20452;-58
2024/01/13 09:23:23;;;;;;;0.50;0.50;;;;;;;1.47;100.00;102245.91;5091367;28;20024;-57
2024/01/13 09:25:48;;;;;;;0.40;0.40;;;;;;;1.48;100.00;102246.78;5091556;28;20020;-57
2024/01/13 09:28:14;;;;;;;0.40;0.40;;;;;;;1.47;100.00;102256.06;5091686;28;20024;-57
2024/01/13 09:30:40;;;;;;;0.40;0.40;;;;;;;1.50;100.00;102258.00;5091926;28;20020;-58
2024/01/13 09:33:05;;;;;;;0.50;0.50;;;;;;;1.50;100.00;102252.91;5092597;28;20052;-57
2024/01/13 09:35:31;;;;;;;0.50;0.50;;;;;;;1.52;100.00;102258.13;5095431;28;20432;-58
2024/01/13 09:38:00;;;;;;;0.38;0.38;;;;;;;1.52;100.00;102258.13;5096245;28;20020;-57
2024/01/13 09:40:28;;;;;;;0.50;0.50;;;;;;;1.51;100.00;102251.25;5096339;28;20048;-57
2024/01/13 09:43:04;;;;;;;0.50;0.50;;;;;;;1.52;100.00;102251.38;5096167;28;20070;-57
2024/01/13 09:45:31;;;;;;;0.50;0.50;;;;;;;1.52;100.00;102243.75;5096266;28;20081;-57
2024/01/13 09:47:58;;;;;;;0.40;0.40;;;;;;;1.55;100.00;102251.66;5096256;28;20020;-57
2024/01/13 09:50:24;;;;;;;0.50;0.50;;;;;;;1.53;100.00;102243.00;5096578;28;20020;-58
2024/01/13 09:52:49;;;;;;;0.50;0.50;;;;;;;1.56;100.00;102228.06;5096138;28;20023;-57
2024/01/13 09:55:17;;;;;;;0.40;0.40;;;;;;;1.56;100.00;102230.59;5096223;28;20053;-57
2024/01/13 09:57:44;;;;;;;0.40;0.40;;;;;;;1.57;100.00;102226.38;5096759;28;20039;-57
2024/01/13 10:00:10;;;;;;;0.40;0.40;;;;;;;1.57;100.00;102227.28;5095654;28;20479;-58
2024/01/13 10:02:35;;;;;;;0.40;0.40;;;;;;;1.56;100.00;102227.13;5096583;28;20028;-58
2024/01/13 10:05:00;;;;;;;0.40;0.40;;;;;;;1.56;100.00;102229.69;5096622;28;20483;-57
2024/01/13 10:07:32;;;;;;;0.50;0.50;;;;;;;1.55;100.00;102223.72;5095499;28;20058;-58
2024/01/13 10:09:59;;;;;;;0.50;0.50;;;;;;;1.55;100.00;102222.81;5096496;28;20020;-58
2024/01/13 10:12:26;;;;;;;0.40;0.40;;;;;;;1.58;100.00;102229.06;5096353;28;20024;-58
2024/01/13 10:14:51;;;;;;;0.40;0.40;;;;;;;1.57;100.00;102224.72;5095992;28;20020;-57
2024/01/13 10:17:16;;;;;;;0.40;0.40;;;;;;;1.58;100.00;102223.97;5096160;28;20394;-57
2024/01/13 10:19:42;;;;;;;0.40;0.40;;;;;;;1.59;100.00;102214.72;5095870;28;20020;-57
2024/01/13 10:22:08;;;;;;;0.32;0.32;;;;;;;1.59;100.00;102219.81;5096089;28;20067;-57
2024/01/13 10:24:34;;;;;;;0.50;0.50;;;;;;;1.58;100.00;102211.28;5095759;28;20530;-58
2024/01/13 10:27:01;;;;;;;0.50;0.50;;;;;;;1.58;100.00;102216.34;5095834;28;20119;-57
2024/01/13 10:29:28;;;;;;;0.40;0.40;;;;;;;1.59;100.00;102215.59;5095815;28;20053;-57
2024/01/13 10:31:53;;;;;;;0.50;0.50;;;;;;;1.60;100.00;102211.41;5096214;28;20464;-57
2024/01/13 10:34:19;;;;;;;0.40;0.40;;;;;;;1.59;100.00;102209.63;5095160;28;20035;-57
2024/01/13 10:36:45;;;;;;;0.40;0.40;;;;;;;1.59;100.00;102205.44;5095794;28;20039;-58
2024/01/13 10:39:11;;;;;;;0.40;0.40;;;;;;;1.59;100.00;102207.97;5095568;28;20020;-58
2024/01/13 10:41:41;;;;;;;0.40;0.40;;;;;;;1.59;100.00;102200.34;5095251;28;20525;-58
2024/01/13 10:44:08;;;;;;;0.40;0.40;;;;;;;1.59;100.00;102195.28;5095793;28;20131;-57
2024/01/13 10:46:37;;;;;;;0.40;0.40;;;;;;;1.60;100.00;102201.22;5095145;28;20028;-57
2024/01/13 10:49:04;;;;;;;0.50;0.50;;;;;;;1.60;100.00;102199.59;5095303;28;20038;-57
2024/01/13 10:51:42;;;;;;;0.50;0.50;;;;;;;1.62;100.00;102192.09;5095230;28;20071;-57
2024/01/13 10:54:08;;;;;;;0.43;0.43;;;;;;;1.61;100.00;102188.69;5095855;28;20028;-57
2024/01/13 10:56:38;;;;;;;0.45;0.45;;;;;;;1.62;100.00;102180.28;5094538;28;20030;-57
2024/01/13 10:59:04;;;;;;;0.50;0.50;;;;;;;1.62;100.00;102185.38;5095630;28;20456;-57
2024/01/13 11:01:30;;;;;;;0.40;0.40;;;;;;;1.63;100.00;102169.38;5095396;28;20030;-58
2024/01/13 11:03:57;;;;;;;0.50;0.50;;;;;;;1.63;100.00;102166.81;5094651;28;20032;-58
2024/01/13 11:06:23;;;;;;;0.50;0.50;;;;;;;1.66;100.00;102165.31;5095016;28;20053;-58
2024/01/13 11:08:48;;;;;;;0.40;0.40;;;;;;;1.66;100.00;102162.78;5095045;28;20047;-57
2024/01/13 11:11:26;;;;;;;0.47;0.47;;;;;;;1.66;100.00;102155.16;5094867;28;20349;-57
2024/01/13 11:13:58;;;;;;;0.40;0.40;;;;;;;1.67;100.00;102162.91;5095435;28;20035;-57
2024/01/13 11:16:26;;;;;;;0.40;0.40;;;;;;;1.67;100.00;102159.50;5094343;28;20387;-57